sensor_id;sensor_type;location;lat;lon;timestamp;P1;durP1;ratioP1;P2;durP2;ratioP2
41943;SDS011;27636;52.610;13.244;2023-04-08T00:02:06;25.83;;;8.85;;
41943;SDS011;27636;52.610;13.244;2023-04-08T00:07:10;28.60;;;9.95;;
41943;SDS011;27636;52.610;13.244;2023-04-08T00:12:15;29.38;;;8.80;;
41943;SDS011;27636;52.610;13.244;2023-04-08T00:22:23;27.17;;;11.10;;
41943;SDS011;27636;52.610;13.244;2023-04-08T00:27:29;30.30;;;10.43;;
41943;SDS011;27636;52.610;13.244;2023-04-08T00:32:33;23.42;;;9.52;;
41943;SDS011;27636;52.610;13.244;2023-04-08T00:37:37;34.90;;;11.10;;
41943;SDS011;27636;52.610;13.244;2023-04-08T00:42:42;31.00;;;10.95;;
41943;SDS011;27636;52.610;13.244;2023-04-08T00:47:45;26.85;;;11.30;;
41943;SDS011;27636;52.610;13.244;2023-04-08T00:52:54;25.77;;;10.45;;
41943;SDS011;27636;52.610;13.244;2023-04-08T00:58:00;31.58;;;11.68;;
41943;SDS011;27636;52.610;13.244;2023-04-08T01:08:11;35.17;;;10.98;;
41943;SDS011;27636;52.610;13.244;2023-04-08T01:13:17;30.77;;;11.65;;
41943;SDS011;27636;52.610;13.244;2023-04-08T01:18:23;29.33;;;12.10;;
41943;SDS011;27636;52.610;13.244;2023-04-08T01:23:39;34.85;;;12.10;;
41943;SDS011;27636;52.610;13.244;2023-04-08T01:28:58;35.60;;;11.75;;
41943;SDS011;27636;52.610;13.244;2023-04-08T01:34:04;28.80;;;10.90;;
41943;SDS011;27636;52.610;13.244;2023-04-08T01:39:08;34.30;;;12.77;;
41943;SDS011;27636;52.610;13.244;2023-04-08T01:44:15;30.63;;;11.35;;
41943;SDS011;27636;52.610;13.244;2023-04-08T01:49:20;43.97;;;12.52;;
41943;SDS011;27636;52.610;13.244;2023-04-08T01:54:26;42.55;;;12.77;;
41943;SDS011;27636;52.610;13.244;2023-04-08T01:59:33;34.22;;;12.57;;
41943;SDS011;27636;52.610;13.244;2023-04-08T02:04:39;37.28;;;10.73;;
41943;SDS011;27636;52.610;13.244;2023-04-08T02:09:42;26.63;;;10.27;;
41943;SDS011;27636;52.610;13.244;2023-04-08T02:14:48;33.45;;;11.68;;
41943;SDS011;27636;52.610;13.244;2023-04-08T02:19:52;39.95;;;11.88;;
41943;SDS011;27636;52.610;13.244;2023-04-08T02:25:03;33.95;;;12.45;;
41943;SDS011;27636;52.610;13.244;2023-04-08T02:30:11;33.33;;;11.05;;
41943;SDS011;27636;52.610;13.244;2023-04-08T02:35:16;39.90;;;13.25;;
41943;SDS011;27636;52.610;13.244;2023-04-08T02:40:21;30.77;;;11.27;;
41943;SDS011;27636;52.610;13.244;2023-04-08T02:45:28;39.72;;;12.63;;
41943;SDS011;27636;52.610;13.244;2023-04-08T02:50:33;33.25;;;10.48;;
41943;SDS011;27636;52.610;13.244;2023-04-08T02:55:37;31.30;;;12.63;;
41943;SDS011;27636;52.610;13.244;2023-04-08T03:00:43;32.13;;;10.00;;
41943;SDS011;27636;52.610;13.244;2023-04-08T03:05:48;29.17;;;10.05;;
41943;SDS011;27636;52.610;13.244;2023-04-08T03:10:51;37.60;;;12.88;;
41943;SDS011;27636;52.610;13.244;2023-04-08T03:15:56;34.97;;;11.85;;
41943;SDS011;27636;52.610;13.244;2023-04-08T03:21:00;42.90;;;11.52;;
41943;SDS011;27636;52.610;13.244;2023-04-08T03:31:10;34.47;;;11.13;;
41943;SDS011;27636;52.610;13.244;2023-04-08T03:36:14;35.38;;;11.57;;
41943;SDS011;27636;52.610;13.244;2023-04-08T03:41:18;36.53;;;12.75;;
41943;SDS011;27636;52.610;13.244;2023-04-08T03:46:23;33.80;;;13.20;;
41943;SDS011;27636;52.610;13.244;2023-04-08T03:51:26;32.03;;;11.80;;
41943;SDS011;27636;52.610;13.244;2023-04-08T03:56:30;39.50;;;11.57;;
41943;SDS011;27636;52.610;13.244;2023-04-08T04:01:35;28.30;;;11.25;;
41943;SDS011;27636;52.610;13.244;2023-04-08T04:06:38;35.22;;;11.93;;
41943;SDS011;27636;52.610;13.244;2023-04-08T04:11:42;40.42;;;12.70;;
41943;SDS011;27636;52.610;13.244;2023-04-08T04:16:47;33.13;;;12.52;;
41943;SDS011;27636;52.610;13.244;2023-04-08T04:21:51;36.80;;;11.63;;
41943;SDS011;27636;52.610;13.244;2023-04-08T04:26:54;42.45;;;11.20;;
41943;SDS011;27636;52.610;13.244;2023-04-08T04:31:59;35.05;;;11.02;;
41943;SDS011;27636;52.610;13.244;2023-04-08T04:37:03;29.75;;;12.23;;
41943;SDS011;27636;52.610;13.244;2023-04-08T04:42:07;35.22;;;11.95;;
41943;SDS011;27636;52.610;13.244;2023-04-08T04:47:12;43.90;;;14.75;;
41943;SDS011;27636;52.610;13.244;2023-04-08T04:52:16;36.70;;;12.02;;
41943;SDS011;27636;52.610;13.244;2023-04-08T04:57:20;33.22;;;12.07;;
41943;SDS011;27636;52.610;13.244;2023-04-08T05:02:25;44.38;;;11.75;;
41943;SDS011;27636;52.610;13.244;2023-04-08T05:07:28;26.98;;;10.13;;
41943;SDS011;27636;52.610;13.244;2023-04-08T05:12:32;41.50;;;12.02;;
41943;SDS011;27636;52.610;13.244;2023-04-08T05:17:37;39.83;;;13.02;;
41943;SDS011;27636;52.610;13.244;2023-04-08T05:27:47;40.50;;;11.30;;
41943;SDS011;27636;52.610;13.244;2023-04-08T05:32:52;33.88;;;10.48;;
41943;SDS011;27636;52.610;13.244;2023-04-08T05:37:55;35.35;;;11.77;;
41943;SDS011;27636;52.610;13.244;2023-04-08T05:42:59;32.13;;;13.13;;
41943;SDS011;27636;52.610;13.244;2023-04-08T05:48:04;35.42;;;11.95;;
41943;SDS011;27636;52.610;13.244;2023-04-08T05:58:59;47.17;;;13.65;;
41943;SDS011;27636;52.610;13.244;2023-04-08T06:04:04;34.35;;;12.05;;
41943;SDS011;27636;52.610;13.244;2023-04-08T06:09:08;48.17;;;13.30;;
41943;SDS011;27636;52.610;13.244;2023-04-08T06:14:12;47.22;;;15.02;;
41943;SDS011;27636;52.610;13.244;2023-04-08T06:19:18;44.92;;;13.65;;
41943;SDS011;27636;52.610;13.244;2023-04-08T06:24:22;42.13;;;13.32;;
41943;SDS011;27636;52.610;13.244;2023-04-08T06:29:26;34.75;;;13.75;;
41943;SDS011;27636;52.610;13.244;2023-04-08T06:34:33;38.35;;;14.00;;
41943;SDS011;27636;52.610;13.244;2023-04-08T06:39:36;45.35;;;14.05;;
41943;SDS011;27636;52.610;13.244;2023-04-08T06:44:40;39.35;;;13.43;;
41943;SDS011;27636;52.610;13.244;2023-04-08T06:49:45;42.55;;;15.02;;
41943;SDS011;27636;52.610;13.244;2023-04-08T06:59:53;40.40;;;13.63;;
41943;SDS011;27636;52.610;13.244;2023-04-08T07:04:59;44.07;;;13.80;;
41943;SDS011;27636;52.610;13.244;2023-04-08T07:15:08;44.40;;;15.27;;
41943;SDS011;27636;52.610;13.244;2023-04-08T07:20:15;37.80;;;12.18;;
41943;SDS011;27636;52.610;13.244;2023-04-08T07:30:22;46.30;;;13.80;;
41943;SDS011;27636;52.610;13.244;2023-04-08T07:35:27;39.22;;;14.32;;
41943;SDS011;27636;52.610;13.244;2023-04-08T07:40:31;39.50;;;14.48;;
41943;SDS011;27636;52.610;13.244;2023-04-08T07:45:35;46.63;;;13.98;;
41943;SDS011;27636;52.610;13.244;2023-04-08T07:50:40;41.42;;;14.32;;
41943;SDS011;27636;52.610;13.244;2023-04-08T08:01:16;48.95;;;14.48;;
41943;SDS011;27636;52.610;13.244;2023-04-08T08:06:23;38.13;;;12.68;;
41943;SDS011;27636;52.610;13.244;2023-04-08T08:11:27;42.88;;;14.35;;
41943;SDS011;27636;52.610;13.244;2023-04-08T08:16:31;36.95;;;11.95;;
41943;SDS011;27636;52.610;13.244;2023-04-08T08:21:37;37.63;;;13.60;;
41943;SDS011;27636;52.610;13.244;2023-04-08T08:26:42;33.03;;;11.70;;
41943;SDS011;27636;52.610;13.244;2023-04-08T08:31:47;38.00;;;13.00;;
41943;SDS011;27636;52.610;13.244;2023-04-08T08:36:52;37.35;;;12.93;;
41943;SDS011;27636;52.610;13.244;2023-04-08T08:41:56;34.72;;;12.35;;
41943;SDS011;27636;52.610;13.244;2023-04-08T08:46:59;42.03;;;13.38;;
41943;SDS011;27636;52.610;13.244;2023-04-08T08:52:04;31.50;;;12.07;;
41943;SDS011;27636;52.610;13.244;2023-04-08T08:57:15;37.50;;;12.88;;
41943;SDS011;27636;52.610;13.244;2023-04-08T09:02:24;31.60;;;11.00;;
41943;SDS011;27636;52.610;13.244;2023-04-08T09:07:34;36.38;;;11.82;;
41943;SDS011;27636;52.610;13.244;2023-04-08T09:12:51;33.53;;;11.40;;
41943;SDS011;27636;52.610;13.244;2023-04-08T09:17:56;31.15;;;13.15;;
41943;SDS011;27636;52.610;13.244;2023-04-08T09:23:01;32.88;;;12.32;;
41943;SDS011;27636;52.610;13.244;2023-04-08T09:28:05;33.38;;;11.93;;
41943;SDS011;27636;52.610;13.244;2023-04-08T09:33:28;37.47;;;13.48;;
41943;SDS011;27636;52.610;13.244;2023-04-08T09:38:33;33.67;;;12.48;;
41943;SDS011;27636;52.610;13.244;2023-04-08T09:43:39;38.38;;;12.25;;
41943;SDS011;27636;52.610;13.244;2023-04-08T09:48:45;39.58;;;11.88;;
41943;SDS011;27636;52.610;13.244;2023-04-08T09:53:59;35.38;;;12.68;;
41943;SDS011;27636;52.610;13.244;2023-04-08T09:59:08;30.05;;;11.63;;
41943;SDS011;27636;52.610;13.244;2023-04-08T10:04:15;32.92;;;11.10;;
41943;SDS011;27636;52.610;13.244;2023-04-08T10:09:25;30.15;;;12.18;;
41943;SDS011;27636;52.610;13.244;2023-04-08T10:14:30;24.45;;;10.20;;
41943;SDS011;27636;52.610;13.244;2023-04-08T10:19:37;30.38;;;10.80;;
41943;SDS011;27636;52.610;13.244;2023-04-08T10:24:47;29.33;;;10.07;;
41943;SDS011;27636;52.610;13.244;2023-04-08T10:30:38;26.27;;;10.20;;
41943;SDS011;27636;52.610;13.244;2023-04-08T10:35:43;27.27;;;9.57;;
41943;SDS011;27636;52.610;13.244;2023-04-08T10:40:51;24.00;;;10.30;;
41943;SDS011;27636;52.610;13.244;2023-04-08T10:45:56;23.27;;;9.95;;
41943;SDS011;27636;52.610;13.244;2023-04-08T10:51:00;22.48;;;9.27;;
41943;SDS011;27636;52.610;13.244;2023-04-08T10:56:10;23.45;;;9.38;;
41943;SDS011;27636;52.610;13.244;2023-04-08T11:01:17;20.55;;;8.70;;
41943;SDS011;27636;52.610;13.244;2023-04-08T11:06:21;23.65;;;9.55;;
41943;SDS011;27636;52.610;13.244;2023-04-08T11:11:26;21.95;;;9.25;;
41943;SDS011;27636;52.610;13.244;2023-04-08T11:16:31;22.55;;;9.07;;
41943;SDS011;27636;52.610;13.244;2023-04-08T11:21:36;23.17;;;8.93;;
41943;SDS011;27636;52.610;13.244;2023-04-08T11:26:41;23.20;;;7.95;;
41943;SDS011;27636;52.610;13.244;2023-04-08T11:31:45;18.58;;;8.25;;
41943;SDS011;27636;52.610;13.244;2023-04-08T11:36:51;21.58;;;8.10;;
41943;SDS011;27636;52.610;13.244;2023-04-08T11:41:56;23.90;;;8.88;;
41943;SDS011;27636;52.610;13.244;2023-04-08T11:47:00;19.63;;;8.20;;
41943;SDS011;27636;52.610;13.244;2023-04-08T11:52:04;18.52;;;7.55;;
41943;SDS011;27636;52.610;13.244;2023-04-08T11:57:09;23.42;;;7.85;;
41943;SDS011;27636;52.610;13.244;2023-04-08T12:02:12;22.25;;;8.50;;
41943;SDS011;27636;52.610;13.244;2023-04-08T12:07:15;25.08;;;9.00;;
41943;SDS011;27636;52.610;13.244;2023-04-08T12:12:21;19.38;;;8.48;;
41943;SDS011;27636;52.610;13.244;2023-04-08T12:17:24;26.10;;;8.68;;
41943;SDS011;27636;52.610;13.244;2023-04-08T12:22:28;18.95;;;7.85;;
41943;SDS011;27636;52.610;13.244;2023-04-08T12:27:33;17.42;;;7.93;;
41943;SDS011;27636;52.610;13.244;2023-04-08T12:32:36;16.73;;;7.43;;
41943;SDS011;27636;52.610;13.244;2023-04-08T12:37:40;20.27;;;8.60;;
41943;SDS011;27636;52.610;13.244;2023-04-08T12:42:45;24.42;;;9.30;;
41943;SDS011;27636;52.610;13.244;2023-04-08T12:47:48;21.75;;;8.30;;
41943;SDS011;27636;52.610;13.244;2023-04-08T12:52:52;17.00;;;8.45;;
41943;SDS011;27636;52.610;13.244;2023-04-08T12:57:57;23.10;;;8.60;;
41943;SDS011;27636;52.610;13.244;2023-04-08T13:03:01;18.70;;;7.93;;
41943;SDS011;27636;52.610;13.244;2023-04-08T13:08:04;19.25;;;7.53;;
41943;SDS011;27636;52.610;13.244;2023-04-08T13:13:09;25.95;;;8.13;;
41943;SDS011;27636;52.610;13.244;2023-04-08T13:18:16;18.73;;;8.57;;
41943;SDS011;27636;52.610;13.244;2023-04-08T13:23:19;17.80;;;7.22;;
41943;SDS011;27636;52.610;13.244;2023-04-08T13:28:27;15.57;;;7.30;;
41943;SDS011;27636;52.610;13.244;2023-04-08T13:33:31;15.07;;;6.78;;
41943;SDS011;27636;52.610;13.244;2023-04-08T13:38:34;16.85;;;6.72;;
41943;SDS011;27636;52.610;13.244;2023-04-08T13:43:39;19.55;;;8.13;;
41943;SDS011;27636;52.610;13.244;2023-04-08T13:48:44;19.85;;;9.00;;
41943;SDS011;27636;52.610;13.244;2023-04-08T13:53:48;22.10;;;9.60;;
41943;SDS011;27636;52.610;13.244;2023-04-08T13:58:53;21.33;;;9.07;;
41943;SDS011;27636;52.610;13.244;2023-04-08T14:03:59;16.95;;;7.38;;
41943;SDS011;27636;52.610;13.244;2023-04-08T14:09:03;18.30;;;8.60;;
41943;SDS011;27636;52.610;13.244;2023-04-08T14:14:07;18.23;;;8.48;;
41943;SDS011;27636;52.610;13.244;2023-04-08T14:19:11;17.38;;;7.80;;
41943;SDS011;27636;52.610;13.244;2023-04-08T14:24:15;15.43;;;8.20;;
41943;SDS011;27636;52.610;13.244;2023-04-08T14:29:20;14.57;;;7.13;;
41943;SDS011;27636;52.610;13.244;2023-04-08T14:34:23;18.80;;;7.75;;
41943;SDS011;27636;52.610;13.244;2023-04-08T14:39:27;17.08;;;8.45;;
41943;SDS011;27636;52.610;13.244;2023-04-08T14:44:32;18.50;;;8.20;;
41943;SDS011;27636;52.610;13.244;2023-04-08T14:49:35;23.02;;;8.82;;
41943;SDS011;27636;52.610;13.244;2023-04-08T14:54:39;20.10;;;7.80;;
41943;SDS011;27636;52.610;13.244;2023-04-08T14:59:44;14.02;;;6.63;;
41943;SDS011;27636;52.610;13.244;2023-04-08T15:04:47;13.68;;;6.57;;
41943;SDS011;27636;52.610;13.244;2023-04-08T15:09:51;13.68;;;6.78;;
41943;SDS011;27636;52.610;13.244;2023-04-08T15:14:58;12.35;;;6.95;;
41943;SDS011;27636;52.610;13.244;2023-04-08T15:20:01;13.80;;;7.35;;
41943;SDS011;27636;52.610;13.244;2023-04-08T15:25:05;17.70;;;7.63;;
41943;SDS011;27636;52.610;13.244;2023-04-08T15:30:11;15.68;;;6.60;;
41943;SDS011;27636;52.610;13.244;2023-04-08T15:35:15;13.73;;;5.53;;
41943;SDS011;27636;52.610;13.244;2023-04-08T15:40:18;12.35;;;5.85;;
41943;SDS011;27636;52.610;13.244;2023-04-08T15:45:23;13.95;;;6.88;;
41943;SDS011;27636;52.610;13.244;2023-04-08T15:50:27;19.27;;;8.88;;
41943;SDS011;27636;52.610;13.244;2023-04-08T15:55:35;17.15;;;8.88;;
41943;SDS011;27636;52.610;13.244;2023-04-08T16:00:40;25.80;;;9.55;;
41943;SDS011;27636;52.610;13.244;2023-04-08T16:05:44;25.95;;;10.85;;
41943;SDS011;27636;52.610;13.244;2023-04-08T16:10:48;26.13;;;10.55;;
41943;SDS011;27636;52.610;13.244;2023-04-08T16:15:53;20.45;;;9.55;;
41943;SDS011;27636;52.610;13.244;2023-04-08T16:20:56;23.77;;;10.18;;
41943;SDS011;27636;52.610;13.244;2023-04-08T16:26:00;25.50;;;11.25;;
41943;SDS011;27636;52.610;13.244;2023-04-08T16:31:05;32.03;;;12.13;;
41943;SDS011;27636;52.610;13.244;2023-04-08T16:36:09;26.90;;;11.30;;
41943;SDS011;27636;52.610;13.244;2023-04-08T16:41:13;21.90;;;9.95;;
41943;SDS011;27636;52.610;13.244;2023-04-08T16:46:17;23.75;;;10.48;;
41943;SDS011;27636;52.610;13.244;2023-04-08T16:51:21;33.78;;;11.60;;
41943;SDS011;27636;52.610;13.244;2023-04-08T16:56:24;28.00;;;11.27;;
41943;SDS011;27636;52.610;13.244;2023-04-08T17:01:30;30.10;;;11.82;;
41943;SDS011;27636;52.610;13.244;2023-04-08T17:06:34;27.33;;;10.93;;
41943;SDS011;27636;52.610;13.244;2023-04-08T17:16:44;25.42;;;10.70;;
41943;SDS011;27636;52.610;13.244;2023-04-08T17:21:47;28.60;;;11.93;;
41943;SDS011;27636;52.610;13.244;2023-04-08T17:26:51;27.55;;;11.45;;
41943;SDS011;27636;52.610;13.244;2023-04-08T17:31:56;28.52;;;11.13;;
41943;SDS011;27636;52.610;13.244;2023-04-08T17:36:59;25.10;;;10.43;;
41943;SDS011;27636;52.610;13.244;2023-04-08T17:42:03;27.48;;;11.20;;
41943;SDS011;27636;52.610;13.244;2023-04-08T17:47:07;25.70;;;11.57;;
41943;SDS011;27636;52.610;13.244;2023-04-08T17:52:11;27.75;;;11.90;;
41943;SDS011;27636;52.610;13.244;2023-04-08T17:57:14;30.23;;;10.95;;
41943;SDS011;27636;52.610;13.244;2023-04-08T18:02:20;28.63;;;12.07;;
41943;SDS011;27636;52.610;13.244;2023-04-08T18:07:23;23.88;;;10.88;;
41943;SDS011;27636;52.610;13.244;2023-04-08T18:12:27;28.05;;;11.63;;
41943;SDS011;27636;52.610;13.244;2023-04-08T18:17:32;28.58;;;10.65;;
41943;SDS011;27636;52.610;13.244;2023-04-08T18:22:36;27.47;;;12.40;;
41943;SDS011;27636;52.610;13.244;2023-04-08T18:27:39;31.88;;;14.82;;
41943;SDS011;27636;52.610;13.244;2023-04-08T18:32:44;21.92;;;10.65;;
41943;SDS011;27636;52.610;13.244;2023-04-08T18:37:48;30.98;;;13.68;;
41943;SDS011;27636;52.610;13.244;2023-04-08T18:42:52;25.58;;;11.05;;
41943;SDS011;27636;52.610;13.244;2023-04-08T18:47:57;22.65;;;10.63;;
41943;SDS011;27636;52.610;13.244;2023-04-08T18:53:01;25.35;;;11.77;;
41943;SDS011;27636;52.610;13.244;2023-04-08T18:58:04;25.40;;;10.98;;
41943;SDS011;27636;52.610;13.244;2023-04-08T19:03:09;25.52;;;11.55;;
41943;SDS011;27636;52.610;13.244;2023-04-08T19:08:13;24.55;;;11.27;;
41943;SDS011;27636;52.610;13.244;2023-04-08T19:20:23;26.55;;;10.98;;
41943;SDS011;27636;52.610;13.244;2023-04-08T19:25:27;23.85;;;11.45;;
41943;SDS011;27636;52.610;13.244;2023-04-08T19:30:33;26.02;;;11.15;;
41943;SDS011;27636;52.610;13.244;2023-04-08T19:35:39;25.60;;;11.60;;
41943;SDS011;27636;52.610;13.244;2023-04-08T19:40:42;25.63;;;11.43;;
41943;SDS011;27636;52.610;13.244;2023-04-08T19:45:51;26.83;;;12.18;;
41943;SDS011;27636;52.610;13.244;2023-04-08T19:50:56;29.15;;;10.95;;
41943;SDS011;27636;52.610;13.244;2023-04-08T19:55:59;27.10;;;10.55;;
41943;SDS011;27636;52.610;13.244;2023-04-08T20:01:03;22.77;;;11.27;;
41943;SDS011;27636;52.610;13.244;2023-04-08T20:06:10;25.13;;;11.00;;
41943;SDS011;27636;52.610;13.244;2023-04-08T20:11:16;23.40;;;10.77;;
41943;SDS011;27636;52.610;13.244;2023-04-08T20:16:19;23.92;;;10.57;;
41943;SDS011;27636;52.610;13.244;2023-04-08T20:21:24;22.13;;;10.82;;
41943;SDS011;27636;52.610;13.244;2023-04-08T20:26:28;24.98;;;10.68;;
41943;SDS011;27636;52.610;13.244;2023-04-08T20:31:33;24.58;;;10.02;;
41943;SDS011;27636;52.610;13.244;2023-04-08T20:36:39;22.70;;;10.07;;
41943;SDS011;27636;52.610;13.244;2023-04-08T20:41:43;27.20;;;11.55;;
41943;SDS011;27636;52.610;13.244;2023-04-08T20:46:46;21.33;;;9.38;;
41943;SDS011;27636;52.610;13.244;2023-04-08T20:51:52;24.98;;;10.93;;
41943;SDS011;27636;52.610;13.244;2023-04-08T20:56:56;22.10;;;10.40;;
41943;SDS011;27636;52.610;13.244;2023-04-08T21:01:59;24.65;;;10.02;;
41943;SDS011;27636;52.610;13.244;2023-04-08T21:07:04;23.27;;;11.75;;
41943;SDS011;27636;52.610;13.244;2023-04-08T21:12:08;23.13;;;10.77;;
41943;SDS011;27636;52.610;13.244;2023-04-08T21:17:12;25.20;;;11.10;;
41943;SDS011;27636;52.610;13.244;2023-04-08T21:22:17;24.90;;;11.02;;
41943;SDS011;27636;52.610;13.244;2023-04-08T21:27:20;21.05;;;9.27;;
41943;SDS011;27636;52.610;13.244;2023-04-08T21:32:24;31.42;;;12.63;;
41943;SDS011;27636;52.610;13.244;2023-04-08T21:37:33;25.42;;;11.65;;
41943;SDS011;27636;52.610;13.244;2023-04-08T21:47:40;25.75;;;10.63;;
41943;SDS011;27636;52.610;13.244;2023-04-08T21:52:45;28.52;;;11.32;;
41943;SDS011;27636;52.610;13.244;2023-04-08T21:57:48;26.90;;;10.35;;
41943;SDS011;27636;52.610;13.244;2023-04-08T22:02:52;20.42;;;9.20;;
41943;SDS011;27636;52.610;13.244;2023-04-08T22:07:57;24.42;;;10.68;;
41943;SDS011;27636;52.610;13.244;2023-04-08T22:13:01;27.17;;;11.98;;
41943;SDS011;27636;52.610;13.244;2023-04-08T22:18:05;46.30;;;16.38;;
41943;SDS011;27636;52.610;13.244;2023-04-08T22:23:10;33.80;;;13.95;;
41943;SDS011;27636;52.610;13.244;2023-04-08T22:28:14;28.98;;;12.98;;
41943;SDS011;27636;52.610;13.244;2023-04-08T22:33:18;30.30;;;12.85;;
41943;SDS011;27636;52.610;13.244;2023-04-08T22:38:23;38.75;;;15.10;;
41943;SDS011;27636;52.610;13.244;2023-04-08T22:43:27;36.75;;;14.20;;
41943;SDS011;27636;52.610;13.244;2023-04-08T22:48:30;35.35;;;13.38;;
41943;SDS011;27636;52.610;13.244;2023-04-08T22:53:35;33.80;;;13.35;;
41943;SDS011;27636;52.610;13.244;2023-04-08T22:58:38;29.10;;;10.88;;
41943;SDS011;27636;52.610;13.244;2023-04-08T23:03:42;27.48;;;10.95;;
41943;SDS011;27636;52.610;13.244;2023-04-08T23:08:46;25.13;;;10.77;;
41943;SDS011;27636;52.610;13.244;2023-04-08T23:13:50;24.05;;;10.32;;
41943;SDS011;27636;52.610;13.244;2023-04-08T23:18:53;24.55;;;10.40;;
41943;SDS011;27636;52.610;13.244;2023-04-08T23:23:58;26.88;;;10.32;;
41943;SDS011;27636;52.610;13.244;2023-04-08T23:29:01;30.23;;;13.15;;
41943;SDS011;27636;52.610;13.244;2023-04-08T23:34:05;30.52;;;11.88;;
41943;SDS011;27636;52.610;13.244;2023-04-08T23:39:10;29.42;;;12.15;;
41943;SDS011;27636;52.610;13.244;2023-04-08T23:44:13;27.17;;;9.57;;
41943;SDS011;27636;52.610;13.244;2023-04-08T23:49:17;20.75;;;10.27;;
41943;SDS011;27636;52.610;13.244;2023-04-08T23:54:21;24.63;;;11.40;;
41943;SDS011;27636;52.610;13.244;2023-04-08T23:59:25;30.58;;;12.02;;
